Time,TemperatureF,DewpointF,PressureIn,WindDirection,WindDirectionDegrees,WindSpeedMPH,WindSpeedGustMPH,Humidity,HourlyPrecipIn,Conditions,Clouds,dailyrainin,SoftwareType,DateUTC
2013-01-03 00:00:00,29.7,19.7,30.21,NW,315,0.0,4.0,66,0.00,,,0.00,Wunderground v.1.15,2013-01-03 05:00:00,
2013-01-03 00:05:00,29.6,17.4,30.22,NW,315,0.0,4.0,60,0.00,,,0.00,Wunderground v.1.15,2013-01-03 05:05:00,
2013-01-03 00:10:00,29.5,18.8,30.22,NW,315,0.0,4.0,64,0.00,,,0.00,Wunderground v.1.15,2013-01-03 05:10:00,
2013-01-03 00:15:00,29.3,17.1,30.22,NW,315,0.0,4.0,60,0.00,,,0.00,Wunderground v.1.15,2013-01-03 05:15:00,
2013-01-03 00:20:00,29.2,18.5,30.21,NW,315,0.0,4.0,64,0.00,,,0.00,Wunderground v.1.15,2013-01-03 05:20:00,
2013-01-03 00:25:00,29.1,17.7,30.21,NW,315,0.0,4.0,62,0.00,,,0.00,Wunderground v.1.15,2013-01-03 05:25:00,
2013-01-03 00:35:00,29.0,17.2,30.22,NW,315,0.0,4.0,61,0.00,,,0.00,Wunderground v.1.15,2013-01-03 05:35:00,
2013-01-03 00:40:00,28.9,17.5,30.21,NW,315,0.0,4.0,62,0.00,,,0.00,Wunderground v.1.15,2013-01-03 05:40:00,
2013-01-03 00:45:00,29.0,17.2,30.22,NW,315,0.0,4.0,61,0.00,,,0.00,Wunderground v.1.15,2013-01-03 05:45:00,
2013-01-03 00:50:00,28.9,16.7,30.21,NW,315,1.0,4.0,60,0.00,,,0.00,Wunderground v.1.15,2013-01-03 05:50:00,
2013-01-03 00:55:00,28.9,16.7,30.20,NW,325,1.0,4.0,60,0.00,,,0.00,Wunderground v.1.15,2013-01-03 05:55:00,
2013-01-03 01:05:00,28.8,17.4,30.20,NW,325,0.0,4.0,62,0.00,,,0.00,Wunderground v.1.15,2013-01-03 06:05:00,
2013-01-03 01:10:00,29.0,18.7,30.21,NW,325,0.0,4.0,65,0.00,,,0.00,Wunderground v.1.15,2013-01-03 06:10:00,
2013-01-03 01:15:00,29.2,18.2,30.20,NW,325,0.0,4.0,63,0.00,,,0.00,Wunderground v.1.15,2013-01-03 06:15:00,
2013-01-03 01:20:00,29.4,18.3,30.20,NW,325,0.0,4.0,63,0.00,,,0.00,Wunderground v.1.15,2013-01-03 06:20:00,
2013-01-03 01:30:00,29.4,18.0,30.21,NW,325,0.0,4.0,62,0.00,,,0.00,Wunderground v.1.15,2013-01-03 06:30:00,
2013-01-03 01:35:00,29.4,18.0,30.20,NW,325,0.0,4.0,62,0.00,,,0.00,Wunderground v.1.15,2013-01-03 06:35:00,
2013-01-03 01:40:00,29.5,18.1,30.21,NW,325,0.0,4.0,62,0.00,,,0.00,Wunderground v.1.15,2013-01-03 06:40:00,
2013-01-03 01:50:00,29.6,20.3,30.20,NW,325,0.0,4.0,68,0.00,,,0.00,Wunderground v.1.15,2013-01-03 06:50:00,
2013-01-03 01:55:00,29.9,19.2,30.21,NW,325,0.0,4.0,64,0.00,,,0.00,Wunderground v.1.15,2013-01-03 06:55:00,
2013-01-03 02:00:00,30.0,18.9,30.21,NW,325,0.0,4.0,63,0.00,,,0.00,Wunderground v.1.15,2013-01-03 07:00:00,
2013-01-03 02:05:00,30.1,19.4,30.22,NW,325,0.0,4.0,64,0.00,,,0.00,Wunderground v.1.15,2013-01-03 07:05:00,
2013-01-03 02:10:00,30.2,19.8,30.22,NW,325,0.0,4.0,65,0.00,,,0.00,Wunderground v.1.15,2013-01-03 07:10:00,
2013-01-03 02:20:00,30.2,20.2,30.22,NW,325,0.0,4.0,66,0.00,,,0.00,Wunderground v.1.15,2013-01-03 07:20:00,
2013-01-03 02:25:00,30.3,19.9,30.22,NW,325,0.0,4.0,65,0.00,,,0.00,Wunderground v.1.15,2013-01-03 07:25:00,
2013-01-03 02:30:00,30.3,19.6,30.23,NW,325,0.0,4.0,64,0.00,,,0.00,Wunderground v.1.15,2013-01-03 07:30:00,
2013-01-03 02:35:00,30.3,20.6,30.22,NW,325,0.0,4.0,67,0.00,,,0.00,Wunderground v.1.15,2013-01-03 07:35:00,
2013-01-03 02:45:00,30.1,19.0,30.22,NW,325,0.0,4.0,63,0.00,,,0.00,Wunderground v.1.15,2013-01-03 07:45:00,
2013-01-03 02:55:00,30.1,20.5,30.22,NW,325,0.0,4.0,67,0.00,,,0.00,Wunderground v.1.15,2013-01-03 07:55:00,
2013-01-03 03:00:00,30.3,21.7,30.22,NW,325,0.0,4.0,70,0.00,,,0.00,Wunderground v.1.15,2013-01-03 08:00:00,
2013-01-03 03:05:00,30.6,19.9,30.22,NW,325,0.0,4.0,64,0.00,,,0.00,Wunderground v.1.15,2013-01-03 08:05:00,
2013-01-03 03:10:00,30.5,20.8,30.22,NW,325,0.0,4.0,67,0.00,,,0.00,Wunderground v.1.15,2013-01-03 08:10:00,
2013-01-03 03:15:00,30.5,19.4,30.22,NW,325,0.0,4.0,63,0.00,,,0.00,Wunderground v.1.15,2013-01-03 08:15:00,
2013-01-03 03:25:00,30.3,20.3,30.23,NW,325,0.0,4.0,66,0.00,,,0.00,Wunderground v.1.15,2013-01-03 08:25:00,
2013-01-03 03:30:00,30.1,20.1,30.22,NW,325,0.0,4.0,66,0.00,,,0.00,Wunderground v.1.15,2013-01-03 08:30:00,
2013-01-03 03:35:00,30.3,22.4,30.22,NW,325,0.0,4.0,72,0.00,,,0.00,Wunderground v.1.15,2013-01-03 08:35:00,
2013-01-03 03:45:00,30.5,19.0,30.22,NW,325,0.0,4.0,62,0.00,,,0.00,Wunderground v.1.15,2013-01-03 08:45:00,
2013-01-03 03:50:00,30.2,18.4,30.21,NW,325,0.0,4.0,61,0.00,,,0.00,Wunderground v.1.15,2013-01-03 08:50:00,
2013-01-03 03:55:00,29.9,19.2,30.22,NW,325,0.0,4.0,64,0.00,,,0.00,Wunderground v.1.15,2013-01-03 08:55:00,
2013-01-03 04:05:00,29.8,19.5,30.21,NW,325,0.0,4.0,65,0.00,,,0.00,Wunderground v.1.15,2013-01-03 09:05:00,
2013-01-03 04:10:00,29.5,18.4,30.20,NW,325,0.0,4.0,63,0.00,,,0.00,Wunderground v.1.15,2013-01-03 09:10:00,
2013-01-03 04:15:00,29.4,19.8,30.20,NW,325,0.0,4.0,67,0.00,,,0.00,Wunderground v.1.15,2013-01-03 09:15:00,
2013-01-03 04:20:00,29.3,18.6,30.20,NW,325,0.0,4.0,64,0.00,,,0.00,Wunderground v.1.15,2013-01-03 09:20:00,
2013-01-03 04:25:00,29.1,18.8,30.20,NW,325,0.0,4.0,65,0.00,,,0.00,Wunderground v.1.15,2013-01-03 09:25:00,
2013-01-03 04:35:00,29.4,20.8,30.20,NW,325,0.0,4.0,70,0.00,,,0.00,Wunderground v.1.15,2013-01-03 09:35:00,
2013-01-03 04:40:00,29.5,20.6,30.20,NW,325,0.0,4.0,69,0.00,,,0.00,Wunderground v.1.15,2013-01-03 09:40:00,
2013-01-03 04:45:00,29.4,18.7,30.20,NW,325,0.0,4.0,64,0.00,,,0.00,Wunderground v.1.15,2013-01-03 09:45:00,
2013-01-03 04:50:00,29.4,19.4,30.21,NW,325,0.0,4.0,66,0.00,,,0.00,Wunderground v.1.15,2013-01-03 09:50:00,
2013-01-03 05:00:00,29.3,19.3,30.20,NW,325,0.0,4.0,66,0.00,,,0.00,Wunderground v.1.15,2013-01-03 10:00:00,
2013-01-03 05:05:00,29.2,19.6,30.21,NW,325,0.0,4.0,67,0.00,,,0.00,Wunderground v.1.15,2013-01-03 10:05:00,
2013-01-03 05:10:00,29.3,20.0,30.20,NW,325,0.0,4.0,68,0.00,,,0.00,Wunderground v.1.15,2013-01-03 10:10:00,
2013-01-03 05:15:00,29.2,19.2,30.21,NW,325,0.0,4.0,66,0.00,,,0.00,Wunderground v.1.15,2013-01-03 10:15:00,
2013-01-03 05:25:00,29.2,18.9,30.20,NW,325,0.0,4.0,65,0.00,,,0.00,Wunderground v.1.15,2013-01-03 10:25:00,
2013-01-03 05:30:00,29.0,18.3,30.21,NW,325,0.0,4.0,64,0.00,,,0.00,Wunderground v.1.15,2013-01-03 10:30:00,
2013-01-03 05:35:00,28.8,18.1,30.21,NW,325,0.0,4.0,64,0.00,,,0.00,Wunderground v.1.15,2013-01-03 10:35:00,
2013-01-03 05:40:00,28.8,18.9,30.21,NW,325,0.0,4.0,66,0.00,,,0.00,Wunderground v.1.15,2013-01-03 10:40:00,
2013-01-03 05:45:00,28.8,18.5,30.21,NW,325,0.0,4.0,65,0.00,,,0.00,Wunderground v.1.15,2013-01-03 10:45:00,
2013-01-03 05:55:00,28.7,17.7,30.22,NW,325,0.0,4.0,63,0.00,,,0.00,Wunderground v.1.15,2013-01-03 10:55:00,
2013-01-03 06:00:00,28.8,18.1,30.22,NW,325,0.0,4.0,64,0.00,,,0.00,Wunderground v.1.15,2013-01-03 11:00:00,
2013-01-03 06:05:00,28.7,18.4,30.22,NW,325,0.0,4.0,65,0.00,,,0.00,Wunderground v.1.15,2013-01-03 11:05:00,
2013-01-03 06:10:00,28.7,18.1,30.22,NW,325,0.0,4.0,64,0.00,,,0.00,Wunderground v.1.15,2013-01-03 11:10:00,
2013-01-03 06:20:00,28.7,18.4,30.22,NW,325,0.0,4.0,65,0.00,,,0.00,Wunderground v.1.15,2013-01-03 11:20:00,
2013-01-03 06:25:00,28.8,18.1,30.22,NW,325,0.0,4.0,64,0.00,,,0.00,Wunderground v.1.15,2013-01-03 11:25:00,
2013-01-03 06:30:00,28.9,18.6,30.23,NW,325,0.0,4.0,65,0.00,,,0.00,Wunderground v.1.15,2013-01-03 11:30:00,
2013-01-03 06:40:00,28.8,19.2,30.23,NW,325,0.0,4.0,67,0.00,,,0.00,Wunderground v.1.15,2013-01-03 11:40:00,
2013-01-03 06:45:00,28.9,19.0,30.23,NW,325,0.0,4.0,66,0.00,,,0.00,Wunderground v.1.15,2013-01-03 11:45:00,
2013-01-03 06:50:00,28.8,17.8,30.23,NW,325,0.0,4.0,63,0.00,,,0.00,Wunderground v.1.15,2013-01-03 11:50:00,
2013-01-03 06:55:00,28.5,17.9,30.23,NW,325,0.0,4.0,64,0.00,,,0.00,Wunderground v.1.15,2013-01-03 11:55:00,
2013-01-03 07:00:00,28.5,20.0,30.23,NW,325,0.0,4.0,70,0.00,,,0.00,Wunderground v.1.15,2013-01-03 12:00:00,
2013-01-03 07:10:00,28.9,20.0,30.23,NW,325,0.0,4.0,69,0.00,,,0.00,Wunderground v.1.15,2013-01-03 12:10:00,
2013-01-03 07:15:00,29.0,21.1,30.23,NW,325,0.0,4.0,72,0.00,,,0.00,Wunderground v.1.15,2013-01-03 12:15:00,
2013-01-03 07:20:00,28.9,19.3,30.23,NW,325,0.0,4.0,67,0.00,,,0.00,Wunderground v.1.15,2013-01-03 12:20:00,
2013-01-03 07:25:00,28.5,19.3,30.23,NW,325,0.0,4.0,68,0.00,,,0.00,Wunderground v.1.15,2013-01-03 12:25:00,
2013-01-03 07:30:00,28.2,18.6,30.23,NW,325,0.0,4.0,67,0.00,,,0.00,Wunderground v.1.15,2013-01-03 12:30:00,
2013-01-03 07:40:00,28.2,21.3,30.23,NW,325,0.0,4.0,75,0.00,,,0.00,Wunderground v.1.15,2013-01-03 12:40:00,
2013-01-03 07:45:00,28.3,21.1,30.23,NW,325,0.0,4.0,74,0.00,,,0.00,Wunderground v.1.15,2013-01-03 12:45:00,
2013-01-03 07:50:00,28.3,19.4,30.23,NW,325,0.0,4.0,69,0.00,,,0.00,Wunderground v.1.15,2013-01-03 12:50:00,
2013-01-03 07:55:00,27.9,19.4,30.23,NW,325,0.0,4.0,70,0.00,,,0.00,Wunderground v.1.15,2013-01-03 12:55:00,
2013-01-03 08:00:00,27.9,20.7,30.23,NW,325,0.0,4.0,74,0.00,,,0.00,Wunderground v.1.15,2013-01-03 13:00:00,
2013-01-03 08:10:00,28.3,19.8,30.23,NW,325,0.0,4.0,70,0.00,,,0.00,Wunderground v.1.15,2013-01-03 13:10:00,
2013-01-03 08:15:00,28.3,19.8,30.24,NW,325,0.0,4.0,70,0.00,,,0.00,Wunderground v.1.15,2013-01-03 13:15:00,
2013-01-03 08:20:00,28.0,19.5,30.23,NW,325,0.0,4.0,70,0.00,,,0.00,Wunderground v.1.15,2013-01-03 13:20:00,
2013-01-03 08:25:00,27.8,18.9,30.24,NW,325,0.0,4.0,69,0.00,,,0.00,Wunderground v.1.15,2013-01-03 13:25:00,
2013-01-03 08:35:00,27.7,19.2,30.24,NW,325,0.0,4.0,70,0.00,,,0.00,Wunderground v.1.15,2013-01-03 13:35:00,
2013-01-03 08:40:00,27.8,18.3,30.23,NW,325,0.0,4.0,67,0.00,,,0.00,Wunderground v.1.15,2013-01-03 13:40:00,
2013-01-03 08:45:00,28.0,18.5,30.24,NW,325,0.0,4.0,67,0.00,,,0.00,Wunderground v.1.15,2013-01-03 13:45:00,
2013-01-03 08:50:00,28.2,19.3,30.24,NW,325,0.0,4.0,69,0.00,,,0.00,Wunderground v.1.15,2013-01-03 13:50:00,
2013-01-03 09:00:00,28.6,18.7,30.24,NW,325,0.0,4.0,66,0.00,,,0.00,Wunderground v.1.15,2013-01-03 14:00:00,
2013-01-03 09:05:00,28.8,19.2,30.24,NW,325,0.0,4.0,67,0.00,,,0.00,Wunderground v.1.15,2013-01-03 14:05:00,
2013-01-03 09:10:00,29.1,19.2,30.24,NW,325,0.0,4.0,66,0.00,,,0.00,Wunderground v.1.15,2013-01-03 14:10:00,
2013-01-03 09:15:00,29.2,18.9,30.24,NW,325,0.0,4.0,65,0.00,,,0.00,Wunderground v.1.15,2013-01-03 14:15:00,
2013-01-03 09:20:00,29.3,18.6,30.24,NW,325,0.0,4.0,64,0.00,,,0.00,Wunderground v.1.15,2013-01-03 14:20:00,
2013-01-03 09:30:00,29.7,18.3,30.24,NW,322,0.0,4.0,62,0.00,,,0.00,Wunderground v.1.15,2013-01-03 14:30:00,
2013-01-03 09:35:00,29.7,18.6,30.24,NW,323,0.0,4.0,63,0.00,,,0.00,Wunderground v.1.15,2013-01-03 14:35:00,
2013-01-03 09:40:00,29.9,18.5,30.24,NW,315,0.0,4.0,62,0.00,,,0.00,Wunderground v.1.15,2013-01-03 14:40:00,
2013-01-03 09:45:00,30.0,18.2,30.25,NW,315,0.0,4.0,61,0.00,,,0.00,Wunderground v.1.15,2013-01-03 14:45:00,
2013-01-03 09:50:00,30.0,18.5,30.25,NW,315,1.0,1.0,62,0.00,,,0.00,Wunderground v.1.15,2013-01-03 14:50:00,
2013-01-03 10:00:00,30.2,18.4,30.24,NW,315,1.0,1.0,61,0.00,,,0.00,Wunderground v.1.15,2013-01-03 15:00:00,
2013-01-03 10:05:00,30.3,18.8,30.25,SSW,201,1.0,2.0,62,0.00,,,0.00,Wunderground v.1.15,2013-01-03 15:05:00,
2013-01-03 10:10:00,30.2,18.4,30.24,SSW,201,1.0,4.0,61,0.00,,,0.00,Wunderground v.1.15,2013-01-03 15:10:00,
2013-01-03 10:20:00,30.7,18.8,30.25,SSW,201,1.0,1.0,61,0.00,,,0.00,Wunderground v.1.15,2013-01-03 15:20:00,
2013-01-03 10:25:00,30.8,18.5,30.24,SSW,200,0.0,4.0,60,0.00,,,0.00,Wunderground v.1.15,2013-01-03 15:25:00,
2013-01-03 10:30:00,31.0,19.1,30.24,SSW,201,0.0,4.0,61,0.00,,,0.00,Wunderground v.1.15,2013-01-03 15:30:00,
2013-01-03 10:35:00,31.2,19.3,30.24,SSW,201,0.0,4.0,61,0.00,,,0.00,Wunderground v.1.15,2013-01-03 15:35:00,
2013-01-03 10:40:00,31.4,19.1,30.23,SSW,200,1.0,4.0,60,0.00,,,0.00,Wunderground v.1.15,2013-01-03 15:40:00,
2013-01-03 10:50:00,31.5,19.2,30.23,SW,216,1.0,4.0,60,0.00,,,0.00,Wunderground v.1.15,2013-01-03 15:50:00,
2013-01-03 10:55:00,31.5,19.2,30.23,SW,217,1.0,4.0,60,0.00,,,0.00,Wunderground v.1.15,2013-01-03 15:55:00,
2013-01-03 11:00:00,31.8,19.9,30.23,WSW,244,1.0,4.0,61,0.00,,,0.00,Wunderground v.1.15,2013-01-03 16:00:00,
2013-01-03 11:05:00,32.1,20.2,30.23,WSW,244,1.0,4.0,61,0.00,,,0.00,Wunderground v.1.15,2013-01-03 16:05:00,
2013-01-03 11:10:00,32.0,19.3,30.22,SSW,213,1.0,1.0,59,0.00,,,0.00,Wunderground v.1.15,2013-01-03 16:10:00,
2013-01-03 11:20:00,32.4,19.7,30.22,SW,216,1.0,4.0,59,0.00,,,0.00,Wunderground v.1.15,2013-01-03 16:20:00,
2013-01-03 11:25:00,32.5,20.1,30.21,SSW,203,1.0,4.0,60,0.00,,,0.00,Wunderground v.1.15,2013-01-03 16:25:00,
2013-01-03 11:30:00,32.8,20.0,30.21,SSW,209,1.0,4.0,59,0.00,,,0.00,Wunderground v.1.15,2013-01-03 16:30:00,
2013-01-03 11:35:00,32.7,19.5,30.22,SSW,203,3.0,4.0,58,0.00,,,0.00,Wunderground v.1.15,2013-01-03 16:35:00,
2013-01-03 11:45:00,33.0,20.2,30.21,SW,227,1.0,4.0,59,0.00,,,0.00,Wunderground v.1.15,2013-01-03 16:45:00,
2013-01-03 11:50:00,33.3,19.7,30.21,West,265,1.0,4.0,57,0.00,,,0.00,Wunderground v.1.15,2013-01-03 16:50:00,
2013-01-03 11:55:00,33.1,19.9,30.21,SSW,192,3.0,4.0,58,0.00,,,0.00,Wunderground v.1.15,2013-01-03 16:55:00,
2013-01-03 12:00:00,33.3,20.1,30.21,WNW,287,2.0,5.0,58,0.00,,,0.00,Wunderground v.1.15,2013-01-03 17:00:00,
2013-01-03 12:10:00,33.5,19.9,30.20,SW,217,2.0,4.0,57,0.00,,,0.00,Wunderground v.1.15,2013-01-03 17:10:00,
2013-01-03 12:15:00,33.3,20.1,30.19,SW,217,3.0,4.0,58,0.00,,,0.00,Wunderground v.1.15,2013-01-03 17:15:00,
2013-01-03 12:20:00,33.9,19.8,30.19,WSW,250,2.0,4.0,56,0.00,,,0.00,Wunderground v.1.15,2013-01-03 17:20:00,
2013-01-03 12:25:00,34.2,20.5,30.18,West,259,2.0,4.0,57,0.00,,,0.00,Wunderground v.1.15,2013-01-03 17:25:00,
2013-01-03 12:35:00,34.4,20.3,30.18,WSW,254,2.0,4.0,56,0.00,,,0.00,Wunderground v.1.15,2013-01-03 17:35:00,
2013-01-03 12:40:00,34.4,20.3,30.18,SSW,210,4.0,4.0,56,0.00,,,0.00,Wunderground v.1.15,2013-01-03 17:40:00,
2013-01-03 12:45:00,34.8,20.7,30.17,SSW,194,2.0,4.0,56,0.00,,,0.00,Wunderground v.1.15,2013-01-03 17:45:00,
2013-01-03 12:50:00,34.7,20.6,30.17,SSW,199,2.0,2.0,56,0.00,,,0.00,Wunderground v.1.15,2013-01-03 17:50:00,
2013-01-03 13:00:00,34.4,20.3,30.16,SW,220,3.0,4.0,56,0.00,,,0.00,Wunderground v.1.15,2013-01-03 18:00:00,
2013-01-03 13:05:00,34.4,20.3,30.16,SW,218,4.0,4.0,56,0.00,,,0.00,Wunderground v.1.15,2013-01-03 18:05:00,
2013-01-03 13:10:00,34.4,20.7,30.16,WSW,238,4.0,4.0,57,0.00,,,0.00,Wunderground v.1.15,2013-01-03 18:10:00,
2013-01-03 13:15:00,34.5,20.4,30.16,SW,217,4.0,4.0,56,0.00,,,0.00,Wunderground v.1.15,2013-01-03 18:15:00,
2013-01-03 13:20:00,34.8,21.1,30.15,SW,217,2.0,4.0,57,0.00,,,0.00,Wunderground v.1.15,2013-01-03 18:20:00,
2013-01-03 13:30:00,35.5,21.3,30.15,WSW,257,3.0,4.0,56,0.00,,,0.00,Wunderground v.1.15,2013-01-03 18:30:00,
2013-01-03 13:35:00,35.6,21.4,30.15,SW,232,3.0,4.0,56,0.00,,,0.00,Wunderground v.1.15,2013-01-03 18:35:00,
2013-01-03 13:40:00,35.6,21.4,30.15,SW,235,3.0,4.0,56,0.00,,,0.00,Wunderground v.1.15,2013-01-03 18:40:00,
2013-01-03 13:45:00,35.9,21.7,30.15,SW,234,2.0,4.0,56,0.00,,,0.00,Wunderground v.1.15,2013-01-03 18:45:00,
2013-01-03 13:55:00,36.2,22.0,30.14,SSW,202,3.0,6.0,56,0.00,,,0.00,Wunderground v.1.15,2013-01-03 18:55:00,
2013-01-03 14:00:00,36.2,21.6,30.14,SSW,212,3.0,3.0,55,0.00,,,0.00,Wunderground v.1.15,2013-01-03 19:00:00,
2013-01-03 14:05:00,36.5,21.8,30.15,SW,225,3.0,5.0,55,0.00,,,0.00,Wunderground v.1.15,2013-01-03 19:05:00,
2013-01-03 14:10:00,36.8,22.1,30.14,WSW,240,3.0,3.0,55,0.00,,,0.00,Wunderground v.1.15,2013-01-03 19:10:00,
2013-01-03 14:45:00,37.4,21.8,30.14,West,264,3.0,4.0,53,0.00,,,0.00,Wunderground v.1.15,2013-01-03 19:45:00,
2013-01-03 15:00:00,38.0,22.8,30.15,WNW,303,2.0,2.0,54,0.00,,,0.00,Wunderground v.1.15,2013-01-03 20:00:00,
2013-01-03 15:10:00,38.5,21.9,30.15,SSW,212,2.0,4.0,51,0.00,,,0.00,Wunderground v.1.15,2013-01-03 20:10:00,
2013-01-03 15:15:00,38.5,21.9,30.15,WSW,245,2.0,4.0,51,0.00,,,0.00,Wunderground v.1.15,2013-01-03 20:15:00,
2013-01-03 15:20:00,38.3,21.7,30.15,West,274,3.0,3.0,51,0.00,,,0.00,Wunderground v.1.15,2013-01-03 20:20:00,
2013-01-03 15:25:00,38.2,21.6,30.15,WSW,238,3.0,4.0,51,0.00,,,0.00,Wunderground v.1.15,2013-01-03 20:25:00,
2013-01-03 15:35:00,38.5,21.9,30.15,WSW,243,2.0,4.0,51,0.00,,,0.00,Wunderground v.1.15,2013-01-03 20:35:00,
2013-01-03 15:40:00,38.2,21.2,30.15,WSW,238,2.0,6.0,50,0.00,,,0.00,Wunderground v.1.15,2013-01-03 20:40:00,
2013-01-03 15:45:00,37.8,21.3,30.15,WSW,242,4.0,6.0,51,0.00,,,0.00,Wunderground v.1.15,2013-01-03 20:45:00,
2013-01-03 15:50:00,37.9,21.4,30.15,WNW,286,3.0,3.0,51,0.00,,,0.00,Wunderground v.1.15,2013-01-03 20:50:00,
2013-01-03 16:00:00,37.8,21.7,30.15,WSW,248,3.0,3.0,52,0.00,,,0.00,Wunderground v.1.15,2013-01-03 21:00:00,
2013-01-03 16:05:00,37.7,22.1,30.15,WSW,254,3.0,4.0,53,0.00,,,0.00,Wunderground v.1.15,2013-01-03 21:05:00,
2013-01-03 16:10:00,37.8,21.7,30.15,SW,219,2.0,4.0,52,0.00,,,0.00,Wunderground v.1.15,2013-01-03 21:10:00,
2013-01-03 16:15:00,37.5,21.5,30.15,WSW,237,3.0,4.0,52,0.00,,,0.00,Wunderground v.1.15,2013-01-03 21:15:00,
2013-01-03 16:20:00,37.4,21.4,30.15,SW,215,4.0,4.0,52,0.00,,,0.00,Wunderground v.1.15,2013-01-03 21:20:00,
2013-01-03 16:30:00,37.1,21.5,30.15,West,259,2.0,2.0,53,0.00,,,0.00,Wunderground v.1.15,2013-01-03 21:30:00,
2013-01-03 16:35:00,37.0,21.4,30.16,WSW,248,1.0,3.0,53,0.00,,,0.00,Wunderground v.1.15,2013-01-03 21:35:00,
2013-01-03 16:40:00,36.9,21.3,30.16,WSW,248,2.0,2.0,53,0.00,,,0.00,Wunderground v.1.15,2013-01-03 21:40:00,
2013-01-03 16:45:00,36.7,21.6,30.16,SW,221,2.0,4.0,54,0.00,,,0.00,Wunderground v.1.15,2013-01-03 21:45:00,
2013-01-03 16:55:00,36.5,21.4,30.16,SSW,208,1.0,5.0,54,0.00,,,0.00,Wunderground v.1.15,2013-01-03 21:55:00,
2013-01-03 17:00:00,36.4,21.8,30.16,SSW,208,2.0,4.0,55,0.00,,,0.00,Wunderground v.1.15,2013-01-03 22:00:00,
2013-01-03 17:05:00,36.3,21.7,30.16,SSW,208,2.0,4.0,55,0.00,,,0.00,Wunderground v.1.15,2013-01-03 22:05:00,
2013-01-03 17:10:00,36.2,21.6,30.16,SSW,207,2.0,2.0,55,0.00,,,0.00,Wunderground v.1.15,2013-01-03 22:10:00,
2013-01-03 17:15:00,36.1,21.9,30.16,SSW,208,1.0,4.0,56,0.00,,,0.00,Wunderground v.1.15,2013-01-03 22:15:00,
2013-01-03 17:25:00,36.0,21.8,30.17,WSW,243,1.0,4.0,56,0.00,,,0.00,Wunderground v.1.15,2013-01-03 22:25:00,
2013-01-03 17:30:00,35.9,21.7,30.17,WSW,243,0.0,4.0,56,0.00,,,0.00,Wunderground v.1.15,2013-01-03 22:30:00,
2013-01-03 17:35:00,35.8,21.6,30.17,SW,214,1.0,4.0,56,0.00,,,0.00,Wunderground v.1.15,2013-01-03 22:35:00,
2013-01-03 17:45:00,35.5,22.6,30.17,SW,214,0.0,2.0,59,0.00,,,0.00,Wunderground v.1.15,2013-01-03 22:45:00,
2013-01-03 17:50:00,35.3,22.8,30.17,SW,214,0.0,4.0,60,0.00,,,0.00,Wunderground v.1.15,2013-01-03 22:50:00,
2013-01-03 17:55:00,35.2,23.1,30.17,SW,214,1.0,4.0,61,0.00,,,0.00,Wunderground v.1.15,2013-01-03 22:55:00,
2013-01-03 18:00:00,35.1,23.0,30.17,SW,214,1.0,1.0,61,0.00,,,0.00,Wunderground v.1.15,2013-01-03 23:00:00,
2013-01-03 18:05:00,35.0,23.3,30.17,SW,214,0.0,3.0,62,0.00,,,0.00,Wunderground v.1.15,2013-01-03 23:05:00,
2013-01-03 18:15:00,34.7,23.0,30.17,SW,214,0.0,4.0,62,0.00,,,0.00,Wunderground v.1.15,2013-01-03 23:15:00,
2013-01-03 18:20:00,34.6,23.3,30.18,SW,214,0.0,4.0,63,0.00,,,0.00,Wunderground v.1.15,2013-01-03 23:20:00,
2013-01-03 18:25:00,34.4,23.1,30.17,SW,214,0.0,4.0,63,0.00,,,0.00,Wunderground v.1.15,2013-01-03 23:25:00,
2013-01-03 18:30:00,34.4,23.5,30.17,SW,214,1.0,1.0,64,0.00,,,0.00,Wunderground v.1.15,2013-01-03 23:30:00,
2013-01-03 18:35:00,34.4,23.5,30.17,SW,214,1.0,4.0,64,0.00,,,0.00,Wunderground v.1.15,2013-01-03 23:35:00,
2013-01-03 18:45:00,34.1,23.6,30.17,SW,214,1.0,4.0,65,0.00,,,0.00,Wunderground v.1.15,2013-01-03 23:45:00,
2013-01-03 18:50:00,34.1,23.6,30.17,SW,214,1.0,1.0,65,0.00,,,0.00,Wunderground v.1.15,2013-01-03 23:50:00,
2013-01-03 18:55:00,34.1,23.6,30.17,SW,225,1.0,4.0,65,0.00,,,0.00,Wunderground v.1.15,2013-01-03 23:55:00,
2013-01-03 19:00:00,34.0,23.8,30.17,SW,225,2.0,4.0,66,0.00,,,0.00,Wunderground v.1.15,2013-01-04 00:00:00,
2013-01-03 19:05:00,33.9,23.7,30.17,SSW,193,2.0,4.0,66,0.00,,,0.00,Wunderground v.1.15,2013-01-04 00:05:00,
2013-01-03 19:15:00,33.6,23.8,30.17,SSW,193,2.0,4.0,67,0.00,,,0.00,Wunderground v.1.15,2013-01-04 00:15:00,
2013-01-03 19:20:00,33.5,23.7,30.17,SSW,193,1.0,4.0,67,0.00,,,0.00,Wunderground v.1.15,2013-01-04 00:20:00,
2013-01-03 19:25:00,33.4,24.0,30.17,SSW,200,2.0,4.0,68,0.00,,,0.00,Wunderground v.1.15,2013-01-04 00:25:00,
2013-01-03 19:30:00,33.4,24.0,30.17,SSW,213,3.0,4.0,68,0.00,,,0.00,Wunderground v.1.15,2013-01-04 00:30:00,
2013-01-03 19:35:00,33.5,23.7,30.17,SSW,211,3.0,4.0,67,0.00,,,0.00,Wunderground v.1.15,2013-01-04 00:35:00,
2013-01-03 19:45:00,33.3,23.9,30.17,SSW,212,2.0,4.0,68,0.00,,,0.00,Wunderground v.1.15,2013-01-04 00:45:00,
2013-01-03 19:50:00,33.2,23.8,30.17,SSW,211,2.0,2.0,68,0.00,,,0.00,Wunderground v.1.15,2013-01-04 00:50:00,
2013-01-03 19:55:00,33.1,23.7,30.17,SSW,211,2.0,4.0,68,0.00,,,0.00,Wunderground v.1.15,2013-01-04 00:55:00,
2013-01-03 20:05:00,32.9,23.5,30.17,SSW,211,3.0,4.0,68,0.00,,,0.00,Wunderground v.1.15,2013-01-04 01:05:00,
2013-01-03 20:10:00,32.9,23.5,30.17,SSW,212,2.0,4.0,68,0.00,,,0.00,Wunderground v.1.15,2013-01-04 01:10:00,
2013-01-03 20:15:00,33.0,23.6,30.17,SSW,203,2.0,4.0,68,0.00,,,0.00,Wunderground v.1.15,2013-01-04 01:15:00,
2013-01-03 20:20:00,32.9,23.5,30.17,SSW,204,2.0,2.0,68,0.00,,,0.00,Wunderground v.1.15,2013-01-04 01:20:00,
2013-01-03 20:25:00,32.9,23.5,30.17,SSW,204,1.0,4.0,68,0.00,,,0.00,Wunderground v.1.15,2013-01-04 01:25:00,
2013-01-03 20:35:00,32.6,23.6,30.17,SSW,203,1.0,4.0,69,0.00,,,0.00,Wunderground v.1.15,2013-01-04 01:35:00,
2013-01-03 20:40:00,32.5,23.1,30.17,SSW,204,1.0,4.0,68,0.00,,,0.00,Wunderground v.1.15,2013-01-04 01:40:00,
2013-01-03 20:45:00,32.5,23.5,30.17,SSW,203,1.0,4.0,69,0.00,,,0.00,Wunderground v.1.15,2013-01-04 01:45:00,
2013-01-03 20:50:00,32.4,23.4,30.17,SSW,204,1.0,4.0,69,0.00,,,0.00,Wunderground v.1.15,2013-01-04 01:50:00,
2013-01-03 21:00:00,32.3,22.9,30.17,SW,220,2.0,2.0,68,0.00,,,0.00,Wunderground v.1.15,2013-01-04 02:00:00,
2013-01-03 21:05:00,32.3,22.9,30.17,SW,221,2.0,4.0,68,0.00,,,0.00,Wunderground v.1.15,2013-01-04 02:05:00,
2013-01-03 21:10:00,32.3,22.9,30.17,SW,221,1.0,4.0,68,0.00,,,0.00,Wunderground v.1.15,2013-01-04 02:10:00,
2013-01-03 21:15:00,32.3,22.9,30.17,SW,221,1.0,4.0,68,0.00,,,0.00,Wunderground v.1.15,2013-01-04 02:15:00,
2013-01-03 21:20:00,32.3,22.9,30.17,SW,221,0.0,4.0,68,0.00,,,0.00,Wunderground v.1.15,2013-01-04 02:20:00,
2013-01-03 21:30:00,32.1,22.4,30.17,SW,221,1.0,4.0,67,0.00,,,0.00,Wunderground v.1.15,2013-01-04 02:30:00,
2013-01-03 21:35:00,32.1,22.4,30.17,SSW,201,2.0,4.0,67,0.00,,,0.00,Wunderground v.1.15,2013-01-04 02:35:00,
2013-01-03 21:40:00,32.1,22.4,30.17,SSW,201,2.0,2.0,67,0.00,,,0.00,Wunderground v.1.15,2013-01-04 02:40:00,
2013-01-03 21:50:00,32.3,22.6,30.18,SSW,201,2.0,2.0,67,0.00,,,0.00,Wunderground v.1.15,2013-01-04 02:50:00,
2013-01-03 21:55:00,32.3,22.6,30.18,SSW,200,1.0,4.0,67,0.00,,,0.00,Wunderground v.1.15,2013-01-04 02:55:00,
2013-01-03 22:00:00,32.2,22.1,30.18,SSW,201,1.0,1.0,66,0.00,,,0.00,Wunderground v.1.15,2013-01-04 03:00:00,
2013-01-03 22:05:00,32.1,22.0,30.18,SSW,201,1.0,4.0,66,0.00,,,0.00,Wunderground v.1.15,2013-01-04 03:05:00,
2013-01-03 22:10:00,32.2,22.5,30.18,SW,233,1.0,4.0,67,0.00,,,0.00,Wunderground v.1.15,2013-01-04 03:10:00,
2013-01-03 22:20:00,32.3,22.6,30.18,SW,215,0.0,4.0,67,0.00,,,0.00,Wunderground v.1.15,2013-01-04 03:20:00,
2013-01-03 22:25:00,32.2,22.5,30.18,SW,215,0.0,4.0,67,0.00,,,0.00,Wunderground v.1.15,2013-01-04 03:25:00,
2013-01-03 22:30:00,32.2,22.5,30.18,SW,215,1.0,1.0,67,0.00,,,0.00,Wunderground v.1.15,2013-01-04 03:30:00,
2013-01-03 22:35:00,32.1,22.4,30.18,WSW,240,1.0,3.0,67,0.00,,,0.00,Wunderground v.1.15,2013-01-04 03:35:00,
2013-01-03 22:40:00,32.2,22.5,30.18,WSW,244,2.0,2.0,67,0.00,,,0.00,Wunderground v.1.15,2013-01-04 03:40:00,
2013-01-03 22:50:00,32.4,22.7,30.18,WSW,237,1.0,4.0,67,0.00,,,0.00,Wunderground v.1.15,2013-01-04 03:50:00,
2013-01-03 22:55:00,32.4,22.7,30.18,WSW,237,1.0,4.0,67,0.00,,,0.00,Wunderground v.1.15,2013-01-04 03:55:00,
2013-01-03 23:00:00,32.3,22.9,30.18,WSW,238,1.0,1.0,68,0.00,,,0.00,Wunderground v.1.15,2013-01-04 04:00:00,
2013-01-03 23:05:00,32.2,22.8,30.18,WSW,238,1.0,2.0,68,0.00,,,0.00,Wunderground v.1.15,2013-01-04 04:05:00,
2013-01-03 23:10:00,32.2,22.8,30.18,WSW,238,1.0,1.0,68,0.00,,,0.00,Wunderground v.1.15,2013-01-04 04:10:00,
2013-01-03 23:20:00,32.1,22.7,30.18,WSW,237,0.0,4.0,68,0.00,,,0.00,Wunderground v.1.15,2013-01-04 04:20:00,
2013-01-03 23:25:00,32.0,22.6,30.18,WSW,238,0.0,4.0,68,0.00,,,0.00,Wunderground v.1.15,2013-01-04 04:25:00,
2013-01-03 23:30:00,31.9,22.9,30.17,WSW,237,0.0,4.0,69,0.00,,,0.00,Wunderground v.1.15,2013-01-04 04:30:00,
2013-01-03 23:35:00,31.9,22.9,30.18,WSW,237,1.0,4.0,69,0.00,,,0.00,Wunderground v.1.15,2013-01-04 04:35:00,
2013-01-03 23:45:00,31.8,22.4,30.18,WSW,238,0.0,4.0,68,0.00,,,0.00,Wunderground v.1.15,2013-01-04 04:45:00,
2013-01-03 23:50:00,31.7,23.4,30.17,WSW,238,0.0,4.0,71,0.00,,,0.00,Wunderground v.1.15,2013-01-04 04:50:00,
2013-01-03 23:55:00,31.6,23.3,30.17,WSW,237,0.0,4.0,71,0.00,,,0.00,Wunderground v.1.15,2013-01-04 04:55:00,